sensor_id;sensor_type;location;lat;lon;timestamp;P1;durP1;ratioP1;P2;durP2;ratioP2
13202;SDS011;6666;51.626;7.530;2022-12-18T00:00:06;44.63;;;17.55;;
13202;SDS011;6666;51.626;7.530;2022-12-18T00:02:44;34.50;;;16.00;;
13202;SDS011;6666;51.626;7.530;2022-12-18T00:05:12;44.53;;;17.40;;
13202;SDS011;6666;51.626;7.530;2022-12-18T00:07:40;43.15;;;17.58;;
13202;SDS011;6666;51.626;7.530;2022-12-18T00:10:09;40.55;;;19.00;;
13202;SDS011;6666;51.626;7.530;2022-12-18T00:12:43;40.72;;;18.60;;
13202;SDS011;6666;51.626;7.530;2022-12-18T00:15:11;45.88;;;17.58;;
13202;SDS011;6666;51.626;7.530;2022-12-18T00:17:39;39.75;;;17.52;;
13202;SDS011;6666;51.626;7.530;2022-12-18T00:20:10;38.67;;;16.27;;
13202;SDS011;6666;51.626;7.530;2022-12-18T00:22:38;37.33;;;16.73;;
13202;SDS011;6666;51.626;7.530;2022-12-18T00:25:07;39.50;;;16.60;;
13202;SDS011;6666;51.626;7.530;2022-12-18T00:27:35;49.70;;;19.15;;
13202;SDS011;6666;51.626;7.530;2022-12-18T00:30:04;50.53;;;18.80;;
13202;SDS011;6666;51.626;7.530;2022-12-18T00:32:33;42.47;;;18.33;;
13202;SDS011;6666;51.626;7.530;2022-12-18T00:35:01;45.33;;;18.17;;
13202;SDS011;6666;51.626;7.530;2022-12-18T00:37:31;35.35;;;16.45;;
13202;SDS011;6666;51.626;7.530;2022-12-18T00:40:01;39.47;;;17.52;;
13202;SDS011;6666;51.626;7.530;2022-12-18T00:42:30;42.67;;;16.45;;
13202;SDS011;6666;51.626;7.530;2022-12-18T00:45:16;34.33;;;16.83;;
13202;SDS011;6666;51.626;7.530;2022-12-18T00:47:45;34.00;;;15.35;;
13202;SDS011;6666;51.626;7.530;2022-12-18T00:50:13;36.50;;;16.42;;
13202;SDS011;6666;51.626;7.530;2022-12-18T00:52:43;43.53;;;16.02;;
13202;SDS011;6666;51.626;7.530;2022-12-18T00:55:12;41.05;;;16.08;;
13202;SDS011;6666;51.626;7.530;2022-12-18T00:57:40;35.13;;;15.23;;
13202;SDS011;6666;51.626;7.530;2022-12-18T01:00:11;34.03;;;16.00;;
13202;SDS011;6666;51.626;7.530;2022-12-18T01:02:42;33.45;;;14.88;;
13202;SDS011;6666;51.626;7.530;2022-12-18T01:05:11;35.38;;;16.50;;
13202;SDS011;6666;51.626;7.530;2022-12-18T01:07:40;39.70;;;15.00;;
13202;SDS011;6666;51.626;7.530;2022-12-18T01:10:11;37.75;;;15.63;;
13202;SDS011;6666;51.626;7.530;2022-12-18T01:12:40;38.47;;;16.35;;
13202;SDS011;6666;51.626;7.530;2022-12-18T01:15:09;35.47;;;16.33;;
13202;SDS011;6666;51.626;7.530;2022-12-18T01:17:39;35.28;;;15.00;;
13202;SDS011;6666;51.626;7.530;2022-12-18T01:20:08;38.67;;;16.30;;
13202;SDS011;6666;51.626;7.530;2022-12-18T01:22:37;37.22;;;16.10;;
13202;SDS011;6666;51.626;7.530;2022-12-18T01:25:06;34.60;;;15.80;;
13202;SDS011;6666;51.626;7.530;2022-12-18T01:27:37;29.58;;;14.13;;
13202;SDS011;6666;51.626;7.530;2022-12-18T01:30:05;39.78;;;15.90;;
13202;SDS011;6666;51.626;7.530;2022-12-18T01:32:34;37.05;;;15.43;;
13202;SDS011;6666;51.626;7.530;2022-12-18T01:35:03;46.92;;;16.88;;
13202;SDS011;6666;51.626;7.530;2022-12-18T01:37:32;35.50;;;15.85;;
13202;SDS011;6666;51.626;7.530;2022-12-18T01:40:00;37.30;;;15.93;;
13202;SDS011;6666;51.626;7.530;2022-12-18T01:42:28;38.15;;;15.50;;
13202;SDS011;6666;51.626;7.530;2022-12-18T01:45:02;35.83;;;15.45;;
13202;SDS011;6666;51.626;7.530;2022-12-18T01:47:49;27.20;;;14.25;;
13202;SDS011;6666;51.626;7.530;2022-12-18T01:50:21;34.55;;;15.35;;
13202;SDS011;6666;51.626;7.530;2022-12-18T01:52:53;32.10;;;15.33;;
13202;SDS011;6666;51.626;7.530;2022-12-18T01:55:25;28.77;;;13.95;;
13202;SDS011;6666;51.626;7.530;2022-12-18T01:57:57;26.88;;;13.93;;
13202;SDS011;6666;51.626;7.530;2022-12-18T02:00:28;35.10;;;15.35;;
13202;SDS011;6666;51.626;7.530;2022-12-18T02:02:57;38.45;;;15.82;;
13202;SDS011;6666;51.626;7.530;2022-12-18T02:05:28;54.97;;;17.77;;
13202;SDS011;6666;51.626;7.530;2022-12-18T02:08:04;48.95;;;18.88;;
13202;SDS011;6666;51.626;7.530;2022-12-18T02:10:41;50.23;;;18.87;;
13202;SDS011;6666;51.626;7.530;2022-12-18T02:13:19;42.95;;;16.20;;
13202;SDS011;6666;51.626;7.530;2022-12-18T02:15:58;38.70;;;16.77;;
13202;SDS011;6666;51.626;7.530;2022-12-18T02:18:32;37.38;;;13.38;;
13202;SDS011;6666;51.626;7.530;2022-12-18T02:21:07;37.50;;;15.70;;
13202;SDS011;6666;51.626;7.530;2022-12-18T02:23:47;31.33;;;13.50;;
13202;SDS011;6666;51.626;7.530;2022-12-18T02:26:27;39.50;;;14.43;;
13202;SDS011;6666;51.626;7.530;2022-12-18T02:29:04;39.72;;;15.27;;
13202;SDS011;6666;51.626;7.530;2022-12-18T02:31:38;39.65;;;14.30;;
13202;SDS011;6666;51.626;7.530;2022-12-18T02:34:10;37.58;;;16.17;;
13202;SDS011;6666;51.626;7.530;2022-12-18T02:36:41;35.90;;;15.23;;
13202;SDS011;6666;51.626;7.530;2022-12-18T02:39:12;37.33;;;14.48;;
13202;SDS011;6666;51.626;7.530;2022-12-18T02:41:57;36.78;;;14.30;;
13202;SDS011;6666;51.626;7.530;2022-12-18T02:44:28;32.10;;;13.85;;
13202;SDS011;6666;51.626;7.530;2022-12-18T02:46:57;28.03;;;14.53;;
13202;SDS011;6666;51.626;7.530;2022-12-18T02:49:28;34.80;;;13.60;;
13202;SDS011;6666;51.626;7.530;2022-12-18T02:52:05;26.48;;;14.35;;
13202;SDS011;6666;51.626;7.530;2022-12-18T02:54:43;33.40;;;14.57;;
13202;SDS011;6666;51.626;7.530;2022-12-18T02:57:24;31.95;;;13.93;;
13202;SDS011;6666;51.626;7.530;2022-12-18T03:00:03;31.75;;;13.65;;
13202;SDS011;6666;51.626;7.530;2022-12-18T03:02:37;28.70;;;13.35;;
13202;SDS011;6666;51.626;7.530;2022-12-18T03:05:12;33.40;;;14.18;;
13202;SDS011;6666;51.626;7.530;2022-12-18T03:07:46;32.30;;;14.20;;
13202;SDS011;6666;51.626;7.530;2022-12-18T03:10:20;36.50;;;14.00;;
13202;SDS011;6666;51.626;7.530;2022-12-18T03:12:54;27.33;;;13.10;;
13202;SDS011;6666;51.626;7.530;2022-12-18T03:15:28;30.38;;;13.82;;
13202;SDS011;6666;51.626;7.530;2022-12-18T03:18:08;28.05;;;13.40;;
13202;SDS011;6666;51.626;7.530;2022-12-18T03:20:39;28.60;;;12.30;;
13202;SDS011;6666;51.626;7.530;2022-12-18T03:23:14;29.38;;;12.65;;
13202;SDS011;6666;51.626;7.530;2022-12-18T03:25:51;27.60;;;12.80;;
13202;SDS011;6666;51.626;7.530;2022-12-18T03:28:30;24.90;;;13.55;;
13202;SDS011;6666;51.626;7.530;2022-12-18T03:31:04;30.30;;;14.20;;
13202;SDS011;6666;51.626;7.530;2022-12-18T03:33:37;26.00;;;13.40;;
13202;SDS011;6666;51.626;7.530;2022-12-18T03:36:08;26.23;;;13.15;;
13202;SDS011;6666;51.626;7.530;2022-12-18T03:38:37;28.17;;;12.85;;
13202;SDS011;6666;51.626;7.530;2022-12-18T03:41:10;28.52;;;12.45;;
13202;SDS011;6666;51.626;7.530;2022-12-18T03:44:13;29.88;;;13.88;;
13202;SDS011;6666;51.626;7.530;2022-12-18T03:46:50;23.88;;;11.68;;
13202;SDS011;6666;51.626;7.530;2022-12-18T03:49:25;28.90;;;12.83;;
13202;SDS011;6666;51.626;7.530;2022-12-18T03:52:03;25.83;;;11.60;;
13202;SDS011;6666;51.626;7.530;2022-12-18T03:54:37;23.80;;;12.43;;
13202;SDS011;6666;51.626;7.530;2022-12-18T03:57:14;23.43;;;11.40;;
13202;SDS011;6666;51.626;7.530;2022-12-18T03:59:49;22.35;;;11.38;;
13202;SDS011;6666;51.626;7.530;2022-12-18T04:02:25;25.67;;;11.85;;
13202;SDS011;6666;51.626;7.530;2022-12-18T04:04:57;22.90;;;10.98;;
13202;SDS011;6666;51.626;7.530;2022-12-18T04:07:30;21.27;;;10.25;;
13202;SDS011;6666;51.626;7.530;2022-12-18T04:09:59;22.73;;;10.80;;
13202;SDS011;6666;51.626;7.530;2022-12-18T04:12:30;22.20;;;11.25;;
13202;SDS011;6666;51.626;7.530;2022-12-18T04:15:01;23.27;;;10.00;;
13202;SDS011;6666;51.626;7.530;2022-12-18T04:17:29;21.80;;;10.93;;
13202;SDS011;6666;51.626;7.530;2022-12-18T04:19:58;26.52;;;12.07;;
13202;SDS011;6666;51.626;7.530;2022-12-18T04:22:26;21.98;;;10.93;;
13202;SDS011;6666;51.626;7.530;2022-12-18T04:24:58;21.60;;;10.98;;
13202;SDS011;6666;51.626;7.530;2022-12-18T04:27:34;24.13;;;10.77;;
13202;SDS011;6666;51.626;7.530;2022-12-18T04:30:06;22.40;;;10.98;;
13202;SDS011;6666;51.626;7.530;2022-12-18T04:32:35;25.25;;;11.38;;
13202;SDS011;6666;51.626;7.530;2022-12-18T04:35:04;24.15;;;11.30;;
13202;SDS011;6666;51.626;7.530;2022-12-18T04:37:40;23.90;;;11.27;;
13202;SDS011;6666;51.626;7.530;2022-12-18T04:40:09;24.17;;;11.90;;
13202;SDS011;6666;51.626;7.530;2022-12-18T04:42:42;25.00;;;11.77;;
13202;SDS011;6666;51.626;7.530;2022-12-18T04:45:11;33.20;;;12.13;;
13202;SDS011;6666;51.626;7.530;2022-12-18T04:47:40;23.70;;;10.52;;
13202;SDS011;6666;51.626;7.530;2022-12-18T04:50:08;22.95;;;12.63;;
13202;SDS011;6666;51.626;7.530;2022-12-18T04:52:36;23.23;;;12.30;;
13202;SDS011;6666;51.626;7.530;2022-12-18T04:55:05;27.88;;;12.77;;
13202;SDS011;6666;51.626;7.530;2022-12-18T04:57:33;30.45;;;13.30;;
13202;SDS011;6666;51.626;7.530;2022-12-18T05:00:02;30.60;;;12.35;;
13202;SDS011;6666;51.626;7.530;2022-12-18T05:02:33;24.10;;;11.30;;
13202;SDS011;6666;51.626;7.530;2022-12-18T05:05:02;24.67;;;11.40;;
13202;SDS011;6666;51.626;7.530;2022-12-18T05:07:31;25.00;;;11.52;;
13202;SDS011;6666;51.626;7.530;2022-12-18T05:09:59;24.23;;;12.32;;
13202;SDS011;6666;51.626;7.530;2022-12-18T05:12:27;25.92;;;11.70;;
13202;SDS011;6666;51.626;7.530;2022-12-18T05:14:55;25.63;;;12.00;;
13202;SDS011;6666;51.626;7.530;2022-12-18T05:17:24;26.27;;;11.90;;
13202;SDS011;6666;51.626;7.530;2022-12-18T05:19:53;25.10;;;11.98;;
13202;SDS011;6666;51.626;7.530;2022-12-18T05:22:22;23.15;;;12.07;;
13202;SDS011;6666;51.626;7.530;2022-12-18T05:24:51;24.45;;;11.52;;
13202;SDS011;6666;51.626;7.530;2022-12-18T05:27:19;25.63;;;11.75;;
13202;SDS011;6666;51.626;7.530;2022-12-18T05:29:48;24.35;;;12.10;;
13202;SDS011;6666;51.626;7.530;2022-12-18T05:32:16;24.45;;;11.15;;
13202;SDS011;6666;51.626;7.530;2022-12-18T05:34:44;23.48;;;11.70;;
13202;SDS011;6666;51.626;7.530;2022-12-18T05:37:13;23.88;;;11.35;;
13202;SDS011;6666;51.626;7.530;2022-12-18T05:39:42;24.15;;;10.95;;
13202;SDS011;6666;51.626;7.530;2022-12-18T05:42:10;20.10;;;11.07;;
13202;SDS011;6666;51.626;7.530;2022-12-18T05:44:38;22.50;;;11.20;;
13202;SDS011;6666;51.626;7.530;2022-12-18T05:47:06;21.03;;;9.50;;
13202;SDS011;6666;51.626;7.530;2022-12-18T05:49:35;27.40;;;11.15;;
13202;SDS011;6666;51.626;7.530;2022-12-18T05:52:03;26.35;;;12.07;;
13202;SDS011;6666;51.626;7.530;2022-12-18T05:54:33;20.63;;;10.15;;
13202;SDS011;6666;51.626;7.530;2022-12-18T05:57:01;24.48;;;10.05;;
13202;SDS011;6666;51.626;7.530;2022-12-18T05:59:30;23.23;;;10.90;;
13202;SDS011;6666;51.626;7.530;2022-12-18T06:01:58;24.27;;;10.68;;
13202;SDS011;6666;51.626;7.530;2022-12-18T06:04:26;20.20;;;9.63;;
13202;SDS011;6666;51.626;7.530;2022-12-18T06:06:57;22.20;;;9.85;;
13202;SDS011;6666;51.626;7.530;2022-12-18T06:09:28;19.77;;;10.00;;
13202;SDS011;6666;51.626;7.530;2022-12-18T06:11:58;20.57;;;9.27;;
13202;SDS011;6666;51.626;7.530;2022-12-18T06:14:27;18.47;;;8.67;;
13202;SDS011;6666;51.626;7.530;2022-12-18T06:16:55;21.50;;;10.18;;
13202;SDS011;6666;51.626;7.530;2022-12-18T06:19:23;20.98;;;8.98;;
13202;SDS011;6666;51.626;7.530;2022-12-18T06:21:51;19.27;;;8.70;;
13202;SDS011;6666;51.626;7.530;2022-12-18T06:24:20;15.57;;;7.90;;
13202;SDS011;6666;51.626;7.530;2022-12-18T06:26:48;15.90;;;8.25;;
13202;SDS011;6666;51.626;7.530;2022-12-18T06:29:18;17.52;;;8.77;;
13202;SDS011;6666;51.626;7.530;2022-12-18T06:31:46;19.40;;;8.57;;
13202;SDS011;6666;51.626;7.530;2022-12-18T06:34:14;15.95;;;7.72;;
13202;SDS011;6666;51.626;7.530;2022-12-18T06:36:42;17.75;;;8.02;;
13202;SDS011;6666;51.626;7.530;2022-12-18T06:39:10;17.77;;;8.53;;
13202;SDS011;6666;51.626;7.530;2022-12-18T06:41:39;16.83;;;8.40;;
13202;SDS011;6666;51.626;7.530;2022-12-18T06:44:07;18.48;;;8.43;;
13202;SDS011;6666;51.626;7.530;2022-12-18T06:46:37;18.60;;;7.72;;
13202;SDS011;6666;51.626;7.530;2022-12-18T06:49:07;15.05;;;7.53;;
13202;SDS011;6666;51.626;7.530;2022-12-18T06:51:36;15.75;;;7.50;;
13202;SDS011;6666;51.626;7.530;2022-12-18T06:54:04;16.43;;;7.70;;
13202;SDS011;6666;51.626;7.530;2022-12-18T06:56:33;12.80;;;7.05;;
13202;SDS011;6666;51.626;7.530;2022-12-18T06:59:01;17.52;;;7.53;;
13202;SDS011;6666;51.626;7.530;2022-12-18T07:01:29;12.57;;;6.90;;
13202;SDS011;6666;51.626;7.530;2022-12-18T07:03:59;15.88;;;7.45;;
13202;SDS011;6666;51.626;7.530;2022-12-18T07:06:27;17.67;;;7.50;;
13202;SDS011;6666;51.626;7.530;2022-12-18T07:08:56;17.00;;;8.83;;
13202;SDS011;6666;51.626;7.530;2022-12-18T07:11:24;19.55;;;8.43;;
13202;SDS011;6666;51.626;7.530;2022-12-18T07:13:52;18.50;;;7.47;;
13202;SDS011;6666;51.626;7.530;2022-12-18T07:16:23;16.67;;;7.85;;
13202;SDS011;6666;51.626;7.530;2022-12-18T07:18:52;21.93;;;8.23;;
13202;SDS011;6666;51.626;7.530;2022-12-18T07:21:22;19.13;;;8.70;;
13202;SDS011;6666;51.626;7.530;2022-12-18T07:23:51;21.50;;;10.43;;
13202;SDS011;6666;51.626;7.530;2022-12-18T07:26:20;21.38;;;9.63;;
13202;SDS011;6666;51.626;7.530;2022-12-18T07:28:49;17.85;;;9.15;;
13202;SDS011;6666;51.626;7.530;2022-12-18T07:31:18;16.88;;;8.27;;
13202;SDS011;6666;51.626;7.530;2022-12-18T07:33:48;13.93;;;6.87;;
13202;SDS011;6666;51.626;7.530;2022-12-18T07:36:17;14.52;;;7.07;;
13202;SDS011;6666;51.626;7.530;2022-12-18T07:38:49;11.77;;;6.63;;
13202;SDS011;6666;51.626;7.530;2022-12-18T07:41:18;15.13;;;7.15;;
13202;SDS011;6666;51.626;7.530;2022-12-18T07:43:47;17.15;;;7.72;;
13202;SDS011;6666;51.626;7.530;2022-12-18T07:46:15;14.55;;;6.30;;
13202;SDS011;6666;51.626;7.530;2022-12-18T07:48:44;13.27;;;6.75;;
13202;SDS011;6666;51.626;7.530;2022-12-18T07:51:15;12.73;;;6.88;;
13202;SDS011;6666;51.626;7.530;2022-12-18T07:53:45;15.17;;;7.57;;
13202;SDS011;6666;51.626;7.530;2022-12-18T07:56:19;14.93;;;6.65;;
13202;SDS011;6666;51.626;7.530;2022-12-18T07:58:54;11.63;;;6.43;;
13202;SDS011;6666;51.626;7.530;2022-12-18T08:01:22;15.60;;;7.97;;
13202;SDS011;6666;51.626;7.530;2022-12-18T08:03:51;14.60;;;8.00;;
13202;SDS011;6666;51.626;7.530;2022-12-18T08:06:20;27.75;;;13.13;;
13202;SDS011;6666;51.626;7.530;2022-12-18T08:08:50;20.55;;;10.90;;
13202;SDS011;6666;51.626;7.530;2022-12-18T08:11:21;21.90;;;11.95;;
13202;SDS011;6666;51.626;7.530;2022-12-18T08:13:51;25.60;;;13.35;;
13202;SDS011;6666;51.626;7.530;2022-12-18T08:16:19;37.47;;;13.93;;
13202;SDS011;6666;51.626;7.530;2022-12-18T08:18:48;16.50;;;8.48;;
13202;SDS011;6666;51.626;7.530;2022-12-18T08:21:19;21.85;;;7.88;;
13202;SDS011;6666;51.626;7.530;2022-12-18T08:23:50;15.43;;;8.48;;
13202;SDS011;6666;51.626;7.530;2022-12-18T08:26:21;17.33;;;9.07;;
13202;SDS011;6666;51.626;7.530;2022-12-18T08:28:50;14.65;;;7.82;;
13202;SDS011;6666;51.626;7.530;2022-12-18T08:31:18;16.65;;;7.15;;
13202;SDS011;6666;51.626;7.530;2022-12-18T08:33:49;15.20;;;7.32;;
13202;SDS011;6666;51.626;7.530;2022-12-18T08:36:19;14.23;;;7.40;;
13202;SDS011;6666;51.626;7.530;2022-12-18T08:38:49;20.25;;;8.88;;
13202;SDS011;6666;51.626;7.530;2022-12-18T08:41:18;14.93;;;7.65;;
13202;SDS011;6666;51.626;7.530;2022-12-18T08:43:48;44.75;;;20.40;;
13202;SDS011;6666;51.626;7.530;2022-12-18T08:46:34;31.30;;;12.50;;
13202;SDS011;6666;51.626;7.530;2022-12-18T08:49:04;51.92;;;22.25;;
13202;SDS011;6666;51.626;7.530;2022-12-18T08:51:34;29.87;;;14.00;;
13202;SDS011;6666;51.626;7.530;2022-12-18T08:54:02;30.52;;;15.00;;
13202;SDS011;6666;51.626;7.530;2022-12-18T08:56:32;40.05;;;16.52;;
13202;SDS011;6666;51.626;7.530;2022-12-18T08:59:02;20.33;;;9.20;;
13202;SDS011;6666;51.626;7.530;2022-12-18T09:01:30;25.63;;;11.60;;
13202;SDS011;6666;51.626;7.530;2022-12-18T09:04:00;14.43;;;8.02;;
13202;SDS011;6666;51.626;7.530;2022-12-18T09:06:30;27.42;;;12.52;;
13202;SDS011;6666;51.626;7.530;2022-12-18T09:08:58;36.83;;;16.48;;
13202;SDS011;6666;51.626;7.530;2022-12-18T09:11:28;15.38;;;7.72;;
13202;SDS011;6666;51.626;7.530;2022-12-18T09:13:56;19.02;;;9.00;;
13202;SDS011;6666;51.626;7.530;2022-12-18T09:16:28;12.27;;;6.80;;
13202;SDS011;6666;51.626;7.530;2022-12-18T09:18:58;22.42;;;10.40;;
13202;SDS011;6666;51.626;7.530;2022-12-18T09:21:28;33.23;;;14.87;;
13202;SDS011;6666;51.626;7.530;2022-12-18T09:24:02;22.70;;;10.65;;
13202;SDS011;6666;51.626;7.530;2022-12-18T09:26:34;19.70;;;8.93;;
13202;SDS011;6666;51.626;7.530;2022-12-18T09:29:02;15.70;;;7.75;;
13202;SDS011;6666;51.626;7.530;2022-12-18T09:31:32;14.90;;;7.35;;
13202;SDS011;6666;51.626;7.530;2022-12-18T09:34:01;14.82;;;8.18;;
13202;SDS011;6666;51.626;7.530;2022-12-18T09:36:29;11.65;;;6.10;;
13202;SDS011;6666;51.626;7.530;2022-12-18T09:38:58;13.05;;;6.70;;
13202;SDS011;6666;51.626;7.530;2022-12-18T09:41:40;8.82;;;5.30;;
13202;SDS011;6666;51.626;7.530;2022-12-18T09:44:17;12.93;;;5.97;;
13202;SDS011;6666;51.626;7.530;2022-12-18T09:46:52;10.80;;;6.43;;
13202;SDS011;6666;51.626;7.530;2022-12-18T09:49:33;12.20;;;5.80;;
13202;SDS011;6666;51.626;7.530;2022-12-18T09:52:05;9.35;;;5.15;;
13202;SDS011;6666;51.626;7.530;2022-12-18T09:54:42;10.30;;;5.97;;
13202;SDS011;6666;51.626;7.530;2022-12-18T09:57:14;10.65;;;5.50;;
13202;SDS011;6666;51.626;7.530;2022-12-18T09:59:46;10.68;;;5.60;;
13202;SDS011;6666;51.626;7.530;2022-12-18T10:02:21;10.05;;;5.40;;
13202;SDS011;6666;51.626;7.530;2022-12-18T10:04:56;12.25;;;5.30;;
13202;SDS011;6666;51.626;7.530;2022-12-18T10:07:41;11.37;;;5.13;;
13202;SDS011;6666;51.626;7.530;2022-12-18T10:10:19;11.65;;;6.40;;
13202;SDS011;6666;51.626;7.530;2022-12-18T10:12:55;12.57;;;5.82;;
13202;SDS011;6666;51.626;7.530;2022-12-18T10:15:33;14.35;;;6.50;;
13202;SDS011;6666;51.626;7.530;2022-12-18T10:18:13;16.45;;;8.00;;
13202;SDS011;6666;51.626;7.530;2022-12-18T10:20:50;10.02;;;6.00;;
13202;SDS011;6666;51.626;7.530;2022-12-18T10:23:25;10.63;;;5.50;;
13202;SDS011;6666;51.626;7.530;2022-12-18T10:25:59;9.82;;;5.97;;
13202;SDS011;6666;51.626;7.530;2022-12-18T10:28:30;11.73;;;5.72;;
13202;SDS011;6666;51.626;7.530;2022-12-18T10:31:04;13.63;;;6.93;;
13202;SDS011;6666;51.626;7.530;2022-12-18T10:33:35;9.10;;;5.30;;
13202;SDS011;6666;51.626;7.530;2022-12-18T10:36:03;10.82;;;5.60;;
13202;SDS011;6666;51.626;7.530;2022-12-18T10:38:32;12.45;;;6.28;;
13202;SDS011;6666;51.626;7.530;2022-12-18T10:41:01;15.70;;;7.78;;
13202;SDS011;6666;51.626;7.530;2022-12-18T10:43:33;42.75;;;19.42;;
13202;SDS011;6666;51.626;7.530;2022-12-18T10:46:04;11.75;;;6.10;;
13202;SDS011;6666;51.626;7.530;2022-12-18T10:48:50;12.93;;;6.05;;
13202;SDS011;6666;51.626;7.530;2022-12-18T10:51:22;10.63;;;5.97;;
13202;SDS011;6666;51.626;7.530;2022-12-18T10:53:57;10.20;;;5.90;;
13202;SDS011;6666;51.626;7.530;2022-12-18T10:56:28;10.93;;;6.07;;
13202;SDS011;6666;51.626;7.530;2022-12-18T10:58:59;11.03;;;6.37;;
13202;SDS011;6666;51.626;7.530;2022-12-18T11:01:44;12.35;;;6.30;;
13202;SDS011;6666;51.626;7.530;2022-12-18T11:04:21;11.98;;;6.60;;
13202;SDS011;6666;51.626;7.530;2022-12-18T11:06:52;10.20;;;6.22;;
13202;SDS011;6666;51.626;7.530;2022-12-18T11:09:23;11.95;;;6.30;;
13202;SDS011;6666;51.626;7.530;2022-12-18T11:11:53;12.40;;;5.90;;
13202;SDS011;6666;51.626;7.530;2022-12-18T11:14:24;13.15;;;6.88;;
13202;SDS011;6666;51.626;7.530;2022-12-18T11:16:54;11.60;;;7.55;;
13202;SDS011;6666;51.626;7.530;2022-12-18T11:19:45;29.35;;;15.35;;
13202;SDS011;6666;51.626;7.530;2022-12-18T11:22:21;17.40;;;8.02;;
13202;SDS011;6666;51.626;7.530;2022-12-18T11:24:53;14.25;;;7.40;;
13202;SDS011;6666;51.626;7.530;2022-12-18T11:27:47;12.98;;;6.45;;
13202;SDS011;6666;51.626;7.530;2022-12-18T11:30:21;15.48;;;6.88;;
13202;SDS011;6666;51.626;7.530;2022-12-18T11:32:52;27.02;;;10.73;;
13202;SDS011;6666;51.626;7.530;2022-12-18T11:35:26;11.13;;;6.60;;
13202;SDS011;6666;51.626;7.530;2022-12-18T11:38:04;12.27;;;6.67;;
13202;SDS011;6666;51.626;7.530;2022-12-18T11:40:41;14.13;;;7.20;;
13202;SDS011;6666;51.626;7.530;2022-12-18T11:43:13;20.40;;;10.48;;
13202;SDS011;6666;51.626;7.530;2022-12-18T11:45:48;13.57;;;7.22;;
13202;SDS011;6666;51.626;7.530;2022-12-18T11:48:21;13.60;;;7.03;;
13202;SDS011;6666;51.626;7.530;2022-12-18T11:50:54;15.50;;;7.35;;
13202;SDS011;6666;51.626;7.530;2022-12-18T11:53:24;11.35;;;6.60;;
13202;SDS011;6666;51.626;7.530;2022-12-18T11:56:02;12.93;;;6.20;;
13202;SDS011;6666;51.626;7.530;2022-12-18T11:58:47;12.60;;;7.18;;
13202;SDS011;6666;51.626;7.530;2022-12-18T12:01:22;11.55;;;6.22;;
13202;SDS011;6666;51.626;7.530;2022-12-18T12:04:14;10.10;;;5.82;;
13202;SDS011;6666;51.626;7.530;2022-12-18T12:06:57;11.10;;;5.85;;
13202;SDS011;6666;51.626;7.530;2022-12-18T12:09:36;8.37;;;5.20;;
13202;SDS011;6666;51.626;7.530;2022-12-18T12:12:16;13.43;;;5.40;;
13202;SDS011;6666;51.626;7.530;2022-12-18T12:14:55;11.45;;;6.05;;
13202;SDS011;6666;51.626;7.530;2022-12-18T12:17:31;9.23;;;5.45;;
13202;SDS011;6666;51.626;7.530;2022-12-18T12:20:07;10.18;;;5.15;;
13202;SDS011;6666;51.626;7.530;2022-12-18T12:22:46;9.07;;;5.50;;
13202;SDS011;6666;51.626;7.530;2022-12-18T12:25:26;13.57;;;6.10;;
13202;SDS011;6666;51.626;7.530;2022-12-18T12:28:04;26.15;;;10.88;;
13202;SDS011;6666;51.626;7.530;2022-12-18T12:30:48;15.32;;;7.55;;
13202;SDS011;6666;51.626;7.530;2022-12-18T12:33:28;9.27;;;5.07;;
13202;SDS011;6666;51.626;7.530;2022-12-18T12:36:06;14.10;;;7.30;;
13202;SDS011;6666;51.626;7.530;2022-12-18T12:38:43;15.40;;;7.80;;
13202;SDS011;6666;51.626;7.530;2022-12-18T12:41:18;12.45;;;6.60;;
13202;SDS011;6666;51.626;7.530;2022-12-18T12:44:13;19.17;;;8.75;;
13202;SDS011;6666;51.626;7.530;2022-12-18T12:46:45;14.40;;;6.63;;
13202;SDS011;6666;51.626;7.530;2022-12-18T12:49:17;14.23;;;6.35;;
13202;SDS011;6666;51.626;7.530;2022-12-18T12:51:49;14.80;;;7.37;;
13202;SDS011;6666;51.626;7.530;2022-12-18T12:54:28;25.42;;;9.45;;
13202;SDS011;6666;51.626;7.530;2022-12-18T12:57:00;22.33;;;9.73;;
13202;SDS011;6666;51.626;7.530;2022-12-18T12:59:36;19.70;;;10.33;;
13202;SDS011;6666;51.626;7.530;2022-12-18T13:02:15;25.98;;;10.95;;
13202;SDS011;6666;51.626;7.530;2022-12-18T13:04:52;19.52;;;9.30;;
13202;SDS011;6666;51.626;7.530;2022-12-18T13:07:26;13.95;;;7.50;;
13202;SDS011;6666;51.626;7.530;2022-12-18T13:10:22;12.77;;;7.20;;
13202;SDS011;6666;51.626;7.530;2022-12-18T13:12:55;18.23;;;7.32;;
13202;SDS011;6666;51.626;7.530;2022-12-18T13:15:28;20.25;;;10.38;;
13202;SDS011;6666;51.626;7.530;2022-12-18T13:18:09;17.88;;;7.88;;
13202;SDS011;6666;51.626;7.530;2022-12-18T13:20:43;19.80;;;9.70;;
13202;SDS011;6666;51.626;7.530;2022-12-18T13:23:31;26.10;;;11.10;;
13202;SDS011;6666;51.626;7.530;2022-12-18T13:28:59;16.98;;;10.25;;
13202;SDS011;6666;51.626;7.530;2022-12-18T13:34:35;17.95;;;8.80;;
13202;SDS011;6666;51.626;7.530;2022-12-18T13:43:33;13.63;;;7.50;;
13202;SDS011;6666;51.626;7.530;2022-12-18T13:48:52;20.15;;;10.13;;
13202;SDS011;6666;51.626;7.530;2022-12-18T13:51:24;20.15;;;11.82;;
13202;SDS011;6666;51.626;7.530;2022-12-18T13:53:54;14.10;;;8.15;;
13202;SDS011;6666;51.626;7.530;2022-12-18T13:56:26;39.03;;;14.70;;
13202;SDS011;6666;51.626;7.530;2022-12-18T13:59:14;29.42;;;12.77;;
13202;SDS011;6666;51.626;7.530;2022-12-18T14:01:50;29.52;;;12.82;;
13202;SDS011;6666;51.626;7.530;2022-12-18T14:04:25;16.77;;;7.83;;
13202;SDS011;6666;51.626;7.530;2022-12-18T14:06:58;17.75;;;8.13;;
13202;SDS011;6666;51.626;7.530;2022-12-18T14:09:34;26.00;;;11.67;;
13202;SDS011;6666;51.626;7.530;2022-12-18T14:12:06;29.30;;;13.55;;
13202;SDS011;6666;51.626;7.530;2022-12-18T14:15:01;16.17;;;8.57;;
13202;SDS011;6666;51.626;7.530;2022-12-18T14:17:30;18.63;;;10.40;;
13202;SDS011;6666;51.626;7.530;2022-12-18T14:20:00;15.93;;;8.05;;
13202;SDS011;6666;51.626;7.530;2022-12-18T14:22:28;17.17;;;10.38;;
13202;SDS011;6666;51.626;7.530;2022-12-18T14:25:05;17.67;;;9.67;;
13202;SDS011;6666;51.626;7.530;2022-12-18T14:27:42;36.55;;;15.63;;
13202;SDS011;6666;51.626;7.530;2022-12-18T14:30:27;37.83;;;16.40;;
13202;SDS011;6666;51.626;7.530;2022-12-18T14:33:00;22.45;;;11.20;;
13202;SDS011;6666;51.626;7.530;2022-12-18T14:35:29;25.37;;;11.60;;
13202;SDS011;6666;51.626;7.530;2022-12-18T14:38:19;22.58;;;10.70;;
13202;SDS011;6666;51.626;7.530;2022-12-18T14:40:57;13.82;;;7.75;;
13202;SDS011;6666;51.626;7.530;2022-12-18T14:43:27;14.15;;;8.18;;
13202;SDS011;6666;51.626;7.530;2022-12-18T14:45:59;12.25;;;7.13;;
13202;SDS011;6666;51.626;7.530;2022-12-18T14:48:33;16.57;;;7.80;;
13202;SDS011;6666;51.626;7.530;2022-12-18T14:51:06;14.45;;;8.52;;
13202;SDS011;6666;51.626;7.530;2022-12-18T14:53:42;17.60;;;8.80;;
13202;SDS011;6666;51.626;7.530;2022-12-18T14:56:20;15.98;;;7.93;;
13202;SDS011;6666;51.626;7.530;2022-12-18T14:58:51;19.10;;;9.07;;
13202;SDS011;6666;51.626;7.530;2022-12-18T15:01:25;16.20;;;9.10;;
13202;SDS011;6666;51.626;7.530;2022-12-18T15:03:56;21.00;;;9.48;;
13202;SDS011;6666;51.626;7.530;2022-12-18T15:06:27;16.17;;;9.17;;
13202;SDS011;6666;51.626;7.530;2022-12-18T15:08:58;16.05;;;8.85;;
13202;SDS011;6666;51.626;7.530;2022-12-18T15:11:30;16.58;;;8.80;;
13202;SDS011;6666;51.626;7.530;2022-12-18T15:14:22;16.13;;;9.07;;
13202;SDS011;6666;51.626;7.530;2022-12-18T15:17:04;15.32;;;9.70;;
13202;SDS011;6666;51.626;7.530;2022-12-18T15:19:41;13.57;;;7.47;;
13202;SDS011;6666;51.626;7.530;2022-12-18T15:24:49;15.25;;;9.10;;
13202;SDS011;6666;51.626;7.530;2022-12-18T15:27:22;21.83;;;11.23;;
13202;SDS011;6666;51.626;7.530;2022-12-18T15:29:59;18.27;;;10.18;;